createdAt,value
2018-01-05T00:00:52.308Z,8.28
2018-01-05T00:01:52.321Z,8.20
2018-01-05T00:02:52.335Z,8.26
2018-01-05T00:03:52.348Z,8.25
2018-01-05T00:04:52.371Z,8.16
2018-01-05T00:05:52.380Z,8.29
2018-01-05T00:06:52.388Z,8.29
2018-01-05T00:07:52.401Z,8.28
2018-01-05T00:08:52.414Z,8.30
2018-01-05T00:09:52.428Z,8.33
2018-01-05T00:10:52.441Z,8.36
2018-01-05T00:11:52.454Z,8.30
2018-01-05T00:12:52.467Z,8.33
2018-01-05T00:13:52.532Z,8.29
2018-01-05T00:14:52.495Z,8.30
2018-01-05T00:15:52.511Z,8.18
2018-01-05T00:16:52.520Z,8.23
2018-01-05T00:17:52.533Z,8.25
2018-01-05T00:18:52.547Z,8.28
2018-01-05T00:19:52.560Z,8.30
2018-01-05T00:20:52.573Z,8.28
2018-01-05T00:21:52.597Z,8.23
2018-01-05T00:22:52.702Z,8.29
2018-01-05T00:23:52.614Z,8.19
2018-01-05T00:24:52.626Z,8.23
2018-01-05T00:25:52.650Z,8.20
2018-01-05T00:26:52.653Z,8.26
2018-01-05T00:27:52.667Z,8.16
2018-01-05T00:28:52.678Z,8.22
2018-01-05T00:29:52.692Z,8.22
2018-01-05T00:30:52.706Z,8.18
2018-01-05T00:31:52.719Z,8.33
2018-01-05T00:32:52.732Z,8.20
2018-01-05T00:33:52.747Z,8.23
2018-01-05T00:34:52.757Z,8.33
2018-01-05T00:35:52.778Z,8.36
2018-01-05T00:36:52.788Z,8.33
2018-01-05T00:37:52.802Z,8.38
2018-01-05T00:38:52.814Z,8.34
2018-01-05T00:39:52.824Z,8.38
2018-01-05T00:40:52.840Z,8.41
2018-01-05T00:41:52.852Z,8.37
2018-01-05T00:42:52.864Z,8.34
2018-01-05T00:43:52.876Z,8.34
2018-01-05T00:44:52.890Z,8.29
2018-01-05T00:45:52.909Z,8.33
2018-01-05T00:46:52.918Z,8.28
2018-01-05T00:47:52.934Z,8.29
2018-01-05T00:48:52.947Z,8.33
2018-01-05T00:49:52.957Z,8.30
2018-01-05T00:50:52.971Z,8.36
2018-01-05T00:51:52.986Z,8.36
2018-01-05T00:52:52.995Z,8.36
2018-01-05T00:53:53.010Z,8.26
2018-01-05T00:54:53.025Z,8.22
2018-01-05T00:55:53.058Z,8.30
2018-01-05T00:56:53.049Z,8.19
2018-01-05T00:57:53.063Z,8.20
2018-01-05T00:58:53.077Z,8.22
2018-01-05T00:59:53.088Z,8.22
2018-01-05T01:00:53.103Z,8.20
2018-01-05T01:01:53.117Z,8.20
2018-01-05T01:02:53.133Z,8.20
2018-01-05T01:03:53.145Z,8.22
2018-01-05T01:04:53.166Z,8.20
2018-01-05T01:05:53.170Z,8.20
2018-01-05T01:06:53.182Z,8.25
2018-01-05T01:07:53.201Z,8.19
2018-01-05T01:08:53.208Z,8.20
2018-01-05T01:09:53.239Z,8.23
2018-01-05T01:10:53.236Z,8.29
2018-01-05T01:11:53.248Z,8.18
2018-01-05T01:12:53.264Z,8.18
2018-01-05T01:13:53.279Z,8.19
2018-01-05T01:14:53.289Z,8.20
2018-01-05T01:15:53.301Z,8.12
2018-01-05T01:16:53.314Z,8.18
2018-01-05T01:17:53.327Z,8.10
2018-01-05T01:18:53.341Z,8.15
2018-01-05T01:19:53.357Z,8.15
2018-01-05T01:20:53.372Z,8.25
2018-01-05T01:21:53.381Z,8.18
2018-01-05T01:22:53.397Z,8.12
2018-01-05T01:23:53.407Z,8.20
2018-01-05T01:24:53.421Z,8.15
2018-01-05T01:25:53.433Z,8.11
2018-01-05T01:26:53.447Z,8.19
2018-01-05T01:27:53.459Z,8.12
2018-01-05T01:28:53.478Z,8.11
2018-01-05T01:29:53.487Z,8.07
2018-01-05T01:30:53.500Z,8.08
2018-01-05T01:31:53.514Z,8.08
2018-01-05T01:32:53.527Z,8.01
2018-01-05T01:33:53.539Z,8.04
2018-01-05T01:34:53.552Z,8.04
2018-01-05T01:35:53.565Z,8.00
2018-01-05T01:36:53.580Z,8.01
2018-01-05T01:37:53.599Z,8.05
2018-01-05T01:38:53.609Z,8.07
2018-01-05T01:39:53.618Z,8.04
2018-01-05T01:40:53.632Z,8.05
2018-01-05T01:41:53.645Z,8.02
2018-01-05T01:42:53.660Z,7.98
2018-01-05T01:43:53.673Z,7.92
2018-01-05T01:44:53.684Z,7.98
2018-01-05T01:45:53.702Z,7.93
2018-01-05T01:46:53.712Z,7.98
2018-01-05T01:47:53.724Z,8.00
2018-01-05T01:48:53.737Z,7.93
2018-01-05T01:49:53.851Z,7.95
2018-01-05T01:50:53.765Z,7.95
2018-01-05T01:51:53.781Z,7.95
2018-01-05T01:52:53.791Z,7.92
2018-01-05T01:53:53.803Z,7.92
2018-01-05T01:54:53.816Z,7.89
2018-01-05T01:55:53.829Z,7.89
2018-01-05T01:56:53.843Z,7.87
2018-01-05T01:57:53.856Z,7.86
2018-01-05T01:58:53.870Z,7.90
2018-01-05T01:59:53.881Z,7.89
2018-01-05T02:00:53.896Z,7.93
2018-01-05T02:01:53.913Z,7.86
2018-01-05T02:02:53.921Z,7.85
2018-01-05T02:03:53.934Z,7.86
2018-01-05T02:04:53.947Z,7.87
2018-01-05T02:05:53.962Z,7.89
2018-01-05T02:06:53.973Z,7.86
2018-01-05T02:07:53.987Z,7.95
2018-01-05T02:08:53.999Z,7.93
2018-01-05T02:09:54.017Z,7.89
2018-01-05T02:10:54.026Z,7.89
2018-01-05T02:11:54.038Z,7.89
2018-01-05T02:12:54.053Z,7.93
2018-01-05T02:13:54.065Z,7.83
2018-01-05T02:14:54.079Z,7.87
2018-01-05T02:15:54.093Z,7.79
2018-01-05T02:16:54.105Z,7.82
2018-01-05T02:17:54.120Z,7.80
2018-01-05T02:18:54.132Z,7.82
2018-01-05T02:19:54.143Z,7.74
2018-01-05T02:20:54.157Z,7.74
2018-01-05T02:21:54.170Z,7.69
2018-01-05T02:22:54.188Z,7.67
2018-01-05T02:23:54.195Z,7.74
2018-01-05T02:24:54.209Z,7.63
2018-01-05T02:25:54.224Z,7.60
2018-01-05T02:26:54.344Z,7.61
2018-01-05T02:27:54.249Z,7.60
2018-01-05T02:28:54.263Z,7.72
2018-01-05T02:29:54.276Z,7.67
2018-01-05T02:30:54.289Z,7.60
2018-01-05T02:31:54.303Z,7.63
2018-01-05T02:32:54.326Z,7.64
2018-01-05T02:33:54.331Z,7.60
2018-01-05T02:34:54.343Z,7.55
2018-01-05T02:35:54.355Z,7.49
2018-01-05T02:36:54.377Z,7.63
2018-01-05T02:37:54.382Z,7.57
2018-01-05T02:38:54.396Z,7.57
2018-01-05T02:39:54.418Z,7.52
2018-01-05T02:40:54.420Z,7.52
2018-01-05T02:41:54.440Z,7.53
2018-01-05T02:42:54.449Z,7.46
2018-01-05T02:43:54.465Z,7.55
2018-01-05T02:44:54.474Z,7.55
2018-01-05T02:45:54.487Z,7.58
2018-01-05T02:46:54.500Z,7.52
2018-01-05T02:47:54.515Z,7.50
2018-01-05T02:48:54.528Z,7.55
2018-01-05T02:49:54.541Z,7.46
2018-01-05T02:50:54.554Z,7.48
2018-01-05T02:51:54.571Z,7.50
2018-01-05T02:52:54.579Z,7.42
2018-01-05T02:53:54.596Z,7.45
2018-01-05T02:54:54.605Z,7.49
2018-01-05T02:55:54.620Z,7.45
2018-01-05T02:56:54.631Z,7.45
2018-01-05T02:57:54.645Z,7.46
2018-01-05T02:58:54.657Z,7.48
2018-01-05T02:59:54.671Z,7.49
2018-01-05T03:00:54.682Z,7.49
2018-01-05T03:01:54.698Z,7.42
2018-01-05T03:02:54.711Z,7.53
2018-01-05T03:03:54.726Z,7.52
2018-01-05T03:04:54.741Z,7.55
2018-01-05T03:05:54.752Z,7.57
2018-01-05T03:06:54.765Z,7.57
2018-01-05T03:07:54.777Z,7.58
2018-01-05T03:08:54.789Z,7.63
2018-01-05T03:09:54.803Z,7.61
2018-01-05T03:10:54.816Z,7.71
2018-01-05T03:11:54.829Z,7.72
2018-01-05T03:12:54.845Z,7.72
2018-01-05T03:13:54.857Z,7.75
2018-01-05T03:14:54.871Z,7.75
2018-01-05T03:15:54.885Z,7.80
2018-01-05T03:16:54.895Z,7.85
2018-01-05T03:17:54.912Z,7.82
2018-01-05T03:18:54.924Z,7.85
2018-01-05T03:19:54.935Z,7.87
2018-01-05T03:20:54.947Z,7.86
2018-01-05T03:21:54.964Z,7.92
2018-01-05T03:22:54.974Z,7.95
2018-01-05T03:23:55.046Z,7.92
2018-01-05T03:24:55.003Z,7.98
2018-01-05T03:25:55.017Z,7.97
2018-01-05T03:26:55.027Z,7.98
2018-01-05T03:27:55.040Z,7.98
2018-01-05T03:28:55.063Z,7.98
2018-01-05T03:29:55.068Z,7.98
2018-01-05T03:30:55.088Z,7.98
2018-01-05T03:31:55.094Z,7.95
2018-01-05T03:32:55.110Z,8.00
2018-01-05T03:33:55.120Z,7.97
2018-01-05T03:34:55.134Z,7.98
2018-01-05T03:35:55.147Z,7.92
2018-01-05T03:36:55.163Z,7.98
2018-01-05T03:37:55.173Z,7.97
2018-01-05T03:38:55.188Z,7.95
2018-01-05T03:39:55.212Z,8.02
2018-01-05T03:40:55.215Z,8.00
2018-01-05T03:41:55.228Z,8.05
2018-01-05T03:42:55.242Z,8.01
2018-01-05T03:43:55.253Z,8.08
2018-01-05T03:44:55.269Z,8.00
2018-01-05T03:45:55.281Z,8.02
2018-01-05T03:46:55.295Z,8.08
2018-01-05T03:47:55.308Z,8.04
2018-01-05T03:48:55.320Z,8.04
2018-01-05T03:49:55.339Z,8.04
2018-01-05T03:50:55.349Z,8.01
2018-01-05T03:51:55.362Z,8.01
2018-01-05T03:52:55.378Z,8.04
2018-01-05T03:53:55.390Z,8.04
2018-01-05T03:54:55.405Z,8.10
2018-01-05T03:55:55.413Z,8.11
2018-01-05T03:56:55.429Z,8.10
2018-01-05T03:57:55.441Z,8.15
2018-01-05T03:58:55.455Z,8.11
2018-01-05T03:59:55.468Z,8.20
2018-01-05T04:00:55.483Z,8.20
2018-01-05T04:01:55.496Z,8.18
2018-01-05T04:02:55.509Z,8.16
2018-01-05T04:03:55.522Z,8.19
2018-01-05T04:04:55.534Z,8.10
2018-01-05T04:05:55.552Z,8.20
2018-01-05T04:06:55.567Z,8.20
2018-01-05T04:07:55.578Z,8.22
2018-01-05T04:08:55.590Z,8.18
2018-01-05T04:09:55.603Z,8.20
2018-01-05T04:10:55.617Z,8.16
2018-01-05T04:11:55.628Z,8.19
2018-01-05T04:12:55.643Z,8.18
2018-01-05T04:13:55.657Z,8.19
2018-01-05T04:14:55.671Z,8.20
2018-01-05T04:15:55.683Z,8.18
2018-01-05T04:16:55.696Z,8.20
2018-01-05T04:17:55.725Z,8.22
2018-01-05T04:18:55.725Z,8.25
2018-01-05T04:19:55.739Z,8.15
2018-01-05T04:20:55.751Z,8.19
2018-01-05T04:21:55.768Z,8.16
2018-01-05T04:22:55.791Z,8.20
2018-01-05T04:23:55.791Z,8.29
2018-01-05T04:24:55.806Z,8.25
2018-01-05T04:25:55.818Z,8.22
2018-01-05T04:26:55.833Z,8.12
2018-01-05T04:27:55.849Z,8.18
2018-01-05T04:28:55.858Z,8.16
2018-01-05T04:29:55.872Z,8.20
2018-01-05T04:30:55.886Z,8.22
2018-01-05T04:31:55.905Z,8.20
2018-01-05T04:32:55.911Z,8.16
2018-01-05T04:33:55.925Z,8.22
2018-01-05T04:34:55.941Z,8.18
2018-01-05T04:35:55.953Z,8.26
2018-01-05T04:36:55.965Z,8.25
2018-01-05T04:37:55.979Z,8.18
2018-01-05T04:38:55.994Z,8.16
2018-01-05T04:39:56.006Z,8.19
2018-01-05T04:40:56.020Z,8.19
2018-01-05T04:41:56.033Z,8.20
2018-01-05T04:42:56.047Z,8.20
2018-01-05T04:43:56.060Z,8.16
2018-01-05T04:44:56.074Z,8.18
2018-01-05T04:45:56.085Z,8.19
2018-01-05T04:46:56.100Z,8.20
2018-01-05T04:47:56.116Z,8.15
2018-01-05T04:48:56.127Z,8.10
2018-01-05T04:49:56.140Z,8.12
2018-01-05T04:50:56.156Z,8.05
2018-01-05T04:51:56.166Z,8.08
2018-01-05T04:52:56.181Z,8.02
2018-01-05T04:53:56.196Z,8.07
2018-01-05T04:54:56.215Z,8.05
2018-01-05T04:55:56.221Z,8.08
2018-01-05T04:56:56.237Z,8.10
2018-01-05T04:57:56.248Z,8.08
2018-01-05T04:58:56.265Z,8.12
2018-01-05T04:59:56.276Z,8.04
2018-01-05T05:00:56.289Z,8.07
2018-01-05T05:01:56.302Z,8.05
2018-01-05T05:02:56.317Z,8.18
2018-01-05T05:03:56.330Z,8.15
2018-01-05T05:04:56.343Z,8.16
2018-01-05T05:05:56.356Z,8.15
2018-01-05T05:06:56.370Z,8.12
2018-01-05T05:07:56.384Z,8.07
2018-01-05T05:08:56.396Z,8.18
2018-01-05T05:09:56.410Z,8.15
2018-01-05T05:10:56.426Z,8.07
2018-01-05T05:11:56.437Z,8.08
2018-01-05T05:12:56.450Z,8.07
2018-01-05T05:13:56.470Z,8.11
2018-01-05T05:14:56.477Z,8.02
2018-01-05T05:15:56.493Z,8.04
2018-01-05T05:16:56.504Z,7.98
2018-01-05T05:17:56.518Z,7.97
2018-01-05T05:18:56.532Z,7.95
2018-01-05T05:19:56.544Z,7.97
2018-01-05T05:20:56.561Z,7.98
2018-01-05T05:21:56.573Z,8.02
2018-01-05T05:22:56.585Z,7.97
2018-01-05T05:23:56.598Z,7.93
2018-01-05T05:24:56.617Z,7.92
2018-01-05T05:25:56.629Z,7.87
2018-01-05T05:26:56.669Z,7.87
2018-01-05T05:27:56.654Z,7.90
2018-01-05T05:28:56.668Z,7.89
2018-01-05T05:29:56.680Z,7.90
2018-01-05T05:30:56.694Z,7.85
2018-01-05T05:31:56.707Z,7.77
2018-01-05T05:32:56.721Z,7.77
2018-01-05T05:33:56.737Z,7.67
2018-01-05T05:34:56.749Z,7.64
2018-01-05T05:35:56.765Z,7.61
2018-01-05T05:36:56.777Z,7.50
2018-01-05T05:37:56.790Z,7.60
2018-01-05T05:38:56.806Z,7.57
2018-01-05T05:39:56.824Z,7.53
2018-01-05T05:40:56.831Z,7.46
2018-01-05T05:41:56.845Z,7.39
2018-01-05T05:42:56.861Z,7.35
2018-01-05T05:43:56.873Z,7.34
2018-01-05T05:44:56.885Z,7.40
2018-01-05T05:45:56.900Z,7.32
2018-01-05T05:46:56.913Z,7.32
2018-01-05T05:47:56.927Z,7.31
2018-01-05T05:48:56.941Z,7.28
2018-01-05T05:49:56.955Z,7.23
2018-01-05T05:50:56.967Z,7.28
2018-01-05T05:51:56.982Z,7.25
2018-01-05T05:52:56.995Z,7.34
2018-01-05T05:53:57.010Z,7.30
2018-01-05T05:54:57.123Z,7.24
2018-01-05T05:55:57.035Z,7.23
2018-01-05T05:56:57.050Z,7.25
2018-01-05T05:57:57.066Z,7.23
2018-01-05T05:58:57.116Z,7.20
2018-01-05T05:59:57.089Z,7.27
2018-01-05T06:00:57.104Z,7.17
2018-01-05T06:01:57.117Z,7.23
2018-01-05T06:02:57.139Z,7.17
2018-01-05T06:03:57.144Z,7.24
2018-01-05T06:04:57.161Z,7.20
2018-01-05T06:05:57.180Z,7.24
2018-01-05T06:06:57.187Z,7.20
2018-01-05T06:07:57.201Z,7.23
2018-01-05T06:08:57.214Z,7.20
2018-01-05T06:09:57.226Z,7.24
2018-01-05T06:10:57.240Z,7.17
2018-01-05T06:11:57.254Z,7.23
2018-01-05T06:12:57.269Z,7.21
2018-01-05T06:13:57.283Z,7.15
2018-01-05T06:14:57.294Z,7.17
2018-01-05T06:15:57.308Z,7.20
2018-01-05T06:16:57.322Z,7.23
2018-01-05T06:17:57.336Z,7.25
2018-01-05T06:18:57.349Z,7.21
2018-01-05T06:19:57.363Z,7.25
2018-01-05T06:20:57.375Z,7.24
2018-01-05T06:21:57.391Z,7.30
2018-01-05T06:22:57.404Z,7.30
2018-01-05T06:23:57.416Z,7.32
2018-01-05T06:24:57.430Z,7.37
2018-01-05T06:25:57.447Z,7.37
2018-01-05T06:26:57.459Z,7.46
2018-01-05T06:27:57.472Z,7.37
2018-01-05T06:28:57.492Z,7.49
2018-01-05T06:29:57.503Z,7.42
2018-01-05T06:30:57.514Z,7.43
2018-01-05T06:31:57.526Z,7.57
2018-01-05T06:32:57.539Z,7.55
2018-01-05T06:33:57.554Z,7.45
2018-01-05T06:34:57.569Z,7.60
2018-01-05T06:35:57.580Z,7.63
2018-01-05T06:36:57.624Z,7.64
2018-01-05T06:37:57.609Z,7.67
2018-01-05T06:38:57.621Z,7.75
2018-01-05T06:39:57.634Z,7.85
2018-01-05T06:40:57.650Z,7.83
2018-01-05T06:41:57.663Z,8.00
2018-01-05T06:42:57.681Z,7.89
2018-01-05T06:43:57.689Z,8.05
2018-01-05T06:44:57.705Z,8.11
2018-01-05T06:45:57.719Z,8.08
2018-01-05T06:46:57.733Z,8.10
2018-01-05T06:47:57.744Z,8.10
2018-01-05T06:48:57.759Z,8.16
2018-01-05T06:49:57.775Z,8.16
2018-01-05T06:50:57.784Z,8.20
2018-01-05T06:51:57.903Z,8.23
2018-01-05T06:52:57.820Z,8.18
2018-01-05T06:53:57.828Z,8.25
2018-01-05T06:54:57.841Z,8.28
2018-01-05T06:55:57.852Z,8.36
2018-01-05T06:56:57.867Z,8.36
2018-01-05T06:57:57.881Z,8.37
2018-01-05T06:58:57.894Z,8.36
2018-01-05T06:59:57.907Z,8.43
2018-01-05T07:00:57.919Z,8.43
2018-01-05T07:01:57.936Z,8.38
2018-01-05T07:02:58.046Z,8.34
2018-01-05T07:03:57.958Z,8.29
2018-01-05T07:04:57.978Z,8.15
2018-01-05T07:05:57.989Z,8.18
2018-01-05T07:06:58.001Z,8.10
2018-01-05T07:07:58.017Z,8.18
2018-01-05T07:08:58.027Z,8.08
2018-01-05T07:09:58.052Z,8.08
2018-01-05T07:10:58.055Z,8.04
2018-01-05T07:11:58.073Z,7.98
2018-01-05T07:12:58.085Z,7.97
2018-01-05T07:13:58.095Z,7.98
2018-01-05T07:14:58.109Z,7.89
2018-01-05T07:15:58.121Z,7.90
2018-01-05T07:16:58.134Z,7.89
2018-01-05T07:17:58.149Z,7.83
2018-01-05T07:18:58.161Z,7.83
2018-01-05T07:19:58.175Z,7.86
2018-01-05T07:20:58.187Z,7.83
2018-01-05T07:21:58.201Z,7.85
2018-01-05T07:22:58.216Z,7.83
2018-01-05T07:23:58.228Z,7.82
2018-01-05T07:24:58.240Z,7.86
2018-01-05T07:25:58.252Z,7.80
2018-01-05T07:26:58.270Z,7.79
2018-01-05T07:27:58.279Z,7.82
2018-01-05T07:28:58.293Z,7.72
2018-01-05T07:29:58.313Z,7.79
2018-01-05T07:30:58.320Z,7.74
2018-01-05T07:31:58.337Z,7.68
2018-01-05T07:32:58.343Z,7.71
2018-01-05T07:33:58.352Z,7.72
2018-01-05T07:34:58.404Z,7.75
2018-01-05T07:35:58.398Z,7.61
2018-01-05T07:36:58.391Z,7.63
2018-01-05T07:37:58.406Z,7.67
2018-01-05T07:38:58.420Z,7.63
2018-01-05T07:39:58.436Z,7.63
2018-01-05T07:40:58.444Z,7.64
2018-01-05T07:41:58.462Z,7.64
2018-01-05T07:42:58.472Z,7.67
2018-01-05T07:43:58.485Z,7.68
2018-01-05T07:44:58.498Z,7.60
2018-01-05T07:45:58.510Z,7.63
2018-01-05T07:46:58.526Z,7.60
2018-01-05T07:47:58.537Z,7.63
2018-01-05T07:48:58.550Z,7.60
2018-01-05T07:49:58.567Z,7.61
2018-01-05T07:50:58.578Z,7.55
2018-01-05T07:51:58.589Z,7.60
2018-01-05T07:52:58.602Z,7.55
2018-01-05T07:53:58.622Z,7.52
2018-01-05T07:54:58.630Z,7.55
2018-01-05T07:55:58.643Z,7.57
2018-01-05T07:56:58.657Z,7.45
2018-01-05T07:57:58.673Z,7.45
2018-01-05T07:58:58.682Z,7.57
2018-01-05T07:59:58.695Z,7.43
2018-01-05T08:00:58.708Z,7.49
2018-01-05T08:01:58.723Z,7.46
2018-01-05T08:02:58.747Z,7.37
2018-01-05T08:03:58.750Z,7.32
2018-01-05T08:04:58.763Z,7.37
2018-01-05T08:05:58.775Z,7.32
2018-01-05T08:06:58.788Z,7.34
2018-01-05T08:07:58.859Z,7.23
2018-01-05T08:08:58.827Z,7.23
2018-01-05T08:09:58.846Z,7.20
2018-01-05T08:10:58.841Z,7.17
2018-01-05T08:11:58.852Z,7.20
2018-01-05T08:12:58.866Z,7.25
2018-01-05T08:13:59.187Z,7.25
2018-01-05T08:14:58.893Z,7.23
2018-01-05T08:15:58.905Z,7.25
2018-01-05T08:16:58.918Z,7.24
2018-01-05T08:17:58.933Z,7.16
2018-01-05T08:18:58.945Z,7.12
2018-01-05T08:19:58.957Z,7.03
2018-01-05T08:20:58.974Z,6.99
2018-01-05T08:21:58.985Z,6.99
2018-01-05T08:22:59.010Z,6.97
2018-01-05T08:23:59.009Z,7.02
2018-01-05T08:24:59.025Z,7.06
2018-01-05T08:25:59.038Z,6.99
2018-01-05T08:26:59.049Z,7.06
2018-01-05T08:27:59.067Z,7.07
2018-01-05T08:28:59.074Z,6.95
2018-01-05T08:29:59.089Z,7.07
2018-01-05T08:30:59.103Z,6.95
2018-01-05T08:31:59.112Z,7.05
2018-01-05T08:32:59.126Z,7.05
2018-01-05T08:33:59.140Z,7.02
2018-01-05T08:34:59.170Z,6.99
2018-01-05T08:35:59.168Z,7.05
2018-01-05T08:36:59.181Z,7.02
2018-01-05T08:37:59.193Z,6.94
2018-01-05T08:38:59.205Z,6.99
2018-01-05T08:39:59.218Z,7.05
2018-01-05T08:40:59.234Z,7.05
2018-01-05T08:41:59.247Z,6.92
2018-01-05T08:42:59.259Z,7.02
2018-01-05T08:43:59.270Z,7.07
2018-01-05T08:44:59.287Z,7.13
2018-01-05T08:45:59.304Z,7.16
2018-01-05T08:46:59.312Z,7.15
2018-01-05T08:47:59.327Z,7.21
2018-01-05T08:48:59.335Z,7.09
2018-01-05T08:49:59.349Z,7.09
2018-01-05T08:50:59.370Z,7.12
2018-01-05T08:51:59.374Z,7.09
2018-01-05T08:52:59.389Z,7.20
2018-01-05T08:53:59.458Z,7.17
2018-01-05T08:54:59.417Z,7.17
2018-01-05T08:55:59.439Z,7.21
2018-01-05T08:56:59.492Z,7.23
2018-01-05T08:57:59.454Z,7.25
2018-01-05T08:58:59.468Z,7.17
2018-01-05T08:59:59.503Z,7.15
2018-01-05T09:00:59.501Z,7.17
2018-01-05T09:01:59.509Z,7.28
2018-01-05T09:02:59.524Z,7.17
2018-01-05T09:03:59.536Z,7.21
2018-01-05T09:04:59.550Z,7.24
2018-01-05T09:05:59.566Z,7.15
2018-01-05T09:06:59.582Z,7.17
2018-01-05T09:07:59.613Z,7.10
2018-01-05T09:08:59.603Z,7.15
2018-01-05T09:09:59.615Z,7.23
2018-01-05T09:10:59.632Z,7.24
2018-01-05T09:11:59.843Z,7.25
2018-01-05T09:12:59.656Z,7.28
2018-01-05T09:13:59.683Z,7.32
2018-01-05T09:14:59.682Z,7.43
2018-01-05T09:15:59.709Z,7.50
2018-01-05T09:16:59.736Z,7.45
2018-01-05T09:17:59.724Z,7.35
2018-01-05T09:18:59.743Z,7.43
2018-01-05T09:19:59.750Z,7.42
2018-01-05T09:20:59.764Z,7.43
2018-01-05T09:21:59.778Z,7.50
2018-01-05T09:22:59.789Z,7.49
2018-01-05T09:23:59.803Z,7.50
2018-01-05T09:24:59.818Z,7.50
2018-01-05T09:25:59.830Z,7.43
2018-01-05T09:26:59.844Z,7.55
2018-01-05T09:27:59.861Z,7.48
2018-01-05T09:28:59.869Z,7.53
2018-01-05T09:29:59.883Z,7.64
2018-01-05T09:30:59.902Z,7.64
2018-01-05T09:31:59.910Z,7.60
2018-01-05T09:33:00.274Z,7.55
2018-01-05T09:33:59.938Z,7.68
2018-01-05T09:34:59.956Z,7.67
2018-01-05T09:35:59.965Z,7.63
2018-01-05T09:36:59.980Z,7.60
2018-01-05T09:37:59.991Z,7.57
2018-01-05T09:39:00.007Z,7.58
2018-01-05T09:40:00.021Z,7.64
2018-01-05T09:41:00.038Z,7.63
2018-01-05T09:42:00.052Z,7.45
2018-01-05T09:43:00.066Z,7.57
2018-01-05T09:44:00.074Z,7.64
2018-01-05T09:45:00.101Z,7.68
2018-01-05T09:46:00.107Z,7.63
2018-01-05T09:47:00.113Z,7.71
2018-01-05T09:48:00.130Z,7.77
2018-01-05T09:49:00.139Z,7.74
2018-01-05T09:50:00.156Z,7.75
2018-01-05T09:51:00.169Z,7.67
2018-01-05T09:52:00.182Z,7.67
2018-01-05T09:53:00.194Z,7.72
2018-01-05T09:54:00.209Z,7.67
2018-01-05T09:55:00.222Z,7.55
2018-01-05T09:56:00.489Z,7.68
2018-01-05T09:57:00.249Z,7.63
2018-01-05T09:58:00.272Z,7.69
2018-01-05T09:59:00.277Z,7.75
2018-01-05T10:00:00.294Z,7.75
2018-01-05T10:01:00.307Z,7.72
2018-01-05T10:02:00.322Z,7.71
2018-01-05T10:03:00.350Z,7.67
2018-01-05T10:04:00.345Z,7.68
2018-01-05T10:05:00.366Z,7.63
2018-01-05T10:06:00.371Z,7.77
2018-01-05T10:07:00.388Z,7.74
2018-01-05T10:08:00.399Z,7.79
2018-01-05T10:09:00.413Z,7.82
2018-01-05T10:10:00.432Z,7.87
2018-01-05T10:11:00.443Z,7.83
2018-01-05T10:12:00.454Z,7.90
2018-01-05T10:13:00.468Z,7.92
2018-01-05T10:14:00.482Z,7.89
2018-01-05T10:15:00.497Z,7.89
2018-01-05T10:16:00.508Z,7.95
2018-01-05T10:17:00.526Z,7.97
2018-01-05T10:18:00.537Z,7.97
2018-01-05T10:19:00.551Z,7.98
2018-01-05T10:20:00.569Z,7.98
2018-01-05T10:21:00.599Z,7.98
2018-01-05T10:22:00.592Z,7.93
2018-01-05T10:23:00.607Z,8.00
2018-01-05T10:24:00.620Z,8.01
2018-01-05T10:25:00.632Z,8.00
2018-01-05T10:26:00.648Z,7.95
2018-01-05T10:27:00.669Z,7.97
2018-01-05T10:28:00.677Z,8.01
2018-01-05T10:29:00.689Z,8.00
2018-01-05T10:30:00.705Z,7.93
2018-01-05T10:31:00.718Z,8.01
2018-01-05T10:32:00.731Z,8.01
2018-01-05T10:33:00.750Z,8.07
2018-01-05T10:34:00.760Z,8.05
2018-01-05T10:35:00.776Z,8.04
2018-01-05T10:36:00.791Z,8.05
2018-01-05T10:37:00.808Z,8.04
2018-01-05T10:38:00.815Z,8.12
2018-01-05T10:39:00.843Z,8.05
2018-01-05T10:40:00.844Z,8.11
2018-01-05T10:41:00.864Z,8.05
2018-01-05T10:42:00.871Z,8.10
2018-01-05T10:43:00.886Z,8.10
2018-01-05T10:44:00.899Z,8.16
2018-01-05T10:45:00.914Z,8.19
2018-01-05T10:46:00.928Z,8.25
2018-01-05T10:47:00.954Z,8.19
2018-01-05T10:48:00.955Z,8.26
2018-01-05T10:49:00.968Z,8.30
2018-01-05T10:50:00.983Z,8.36
2018-01-05T10:51:01.001Z,8.38
2018-01-05T10:52:01.015Z,8.41
2018-01-05T10:53:01.030Z,8.38
2018-01-05T10:54:01.046Z,8.38
2018-01-05T10:55:01.075Z,8.40
2018-01-05T10:56:01.080Z,8.45
2018-01-05T10:57:01.082Z,8.37
2018-01-05T10:58:01.101Z,8.48
2018-01-05T10:59:01.110Z,8.52
2018-01-05T11:00:01.123Z,8.52
2018-01-05T11:01:01.570Z,8.59
2018-01-05T11:02:01.152Z,8.61
2018-01-05T11:03:01.268Z,8.58
2018-01-05T11:04:01.180Z,8.63
2018-01-05T11:05:01.195Z,8.56
2018-01-05T11:06:01.213Z,8.55
2018-01-05T11:07:01.226Z,8.55
2018-01-05T11:08:01.246Z,8.68
2018-01-05T11:09:01.254Z,8.66
2018-01-05T11:10:01.268Z,8.61
2018-01-05T11:11:01.280Z,8.66
2018-01-05T11:12:01.293Z,8.66
2018-01-05T11:13:01.307Z,8.70
2018-01-05T11:14:01.321Z,8.63
2018-01-05T11:15:01.336Z,8.68
2018-01-05T11:16:01.350Z,8.74
2018-01-05T11:17:01.369Z,8.68
2018-01-05T11:18:01.380Z,8.81
2018-01-05T11:19:01.394Z,8.73
2018-01-05T11:20:01.417Z,8.71
2018-01-05T11:21:01.422Z,8.71
2018-01-05T11:22:01.438Z,8.80
2018-01-05T11:23:01.455Z,8.83
2018-01-05T11:24:01.464Z,8.77
2018-01-05T11:25:01.496Z,8.79
2018-01-05T11:26:01.502Z,8.81
2018-01-05T11:27:01.524Z,8.80
2018-01-05T11:28:01.528Z,8.74
2018-01-05T11:29:01.539Z,8.74
2018-01-05T11:30:01.553Z,8.79
2018-01-05T11:31:01.579Z,8.83
2018-01-05T11:32:01.579Z,8.87
2018-01-05T11:33:01.600Z,8.79
2018-01-05T11:34:01.606Z,8.80
2018-01-05T11:35:01.622Z,8.80
2018-01-05T11:36:01.637Z,8.81
2018-01-05T11:37:01.652Z,8.86
2018-01-05T11:38:01.666Z,8.91
2018-01-05T11:39:01.681Z,8.86
2018-01-05T11:40:01.694Z,8.86
2018-01-05T11:41:01.735Z,8.86
2018-01-05T11:42:01.721Z,9.01
2018-01-05T11:43:01.747Z,9.01
2018-01-05T11:44:01.751Z,9.04
2018-01-05T11:45:01.765Z,8.98
2018-01-05T11:46:01.783Z,9.13
2018-01-05T11:47:01.795Z,8.99
2018-01-05T11:48:01.810Z,9.04
2018-01-05T11:49:01.825Z,9.10
2018-01-05T11:50:01.838Z,9.14
2018-01-05T11:51:01.855Z,9.17
2018-01-05T11:52:01.870Z,9.11
2018-01-05T11:53:01.886Z,9.02
2018-01-05T11:54:01.927Z,9.05
2018-01-05T11:55:01.921Z,9.11
2018-01-05T11:56:01.939Z,9.08
2018-01-05T11:57:01.946Z,9.11
2018-01-05T11:58:01.953Z,9.14
2018-01-05T11:59:01.975Z,9.05
2018-01-05T12:00:01.983Z,9.23
2018-01-05T12:01:01.996Z,9.11
2018-01-05T12:02:02.038Z,9.24
2018-01-05T12:03:02.027Z,9.17
2018-01-05T12:04:02.045Z,9.13
2018-01-05T12:05:02.158Z,9.10
2018-01-05T12:06:02.071Z,9.11
2018-01-05T12:07:02.084Z,9.17
2018-01-05T12:08:02.102Z,9.10
2018-01-05T12:09:02.115Z,9.17
2018-01-05T12:10:02.130Z,9.05
2018-01-05T12:11:02.167Z,9.10
2018-01-05T12:12:02.156Z,9.13
2018-01-05T12:13:02.170Z,9.14
2018-01-05T12:14:02.191Z,9.20
2018-01-05T12:15:02.201Z,9.24
2018-01-05T12:16:02.216Z,9.10
2018-01-05T12:17:02.227Z,9.24
2018-01-05T12:18:02.244Z,9.23
2018-01-05T12:19:02.258Z,9.20
2018-01-05T12:20:02.277Z,9.10
2018-01-05T12:21:02.286Z,9.15
2018-01-05T12:22:02.341Z,9.08
2018-01-05T12:23:02.317Z,9.10
2018-01-05T12:24:02.332Z,9.13
2018-01-05T12:25:02.349Z,9.13
2018-01-05T12:26:02.363Z,9.10
2018-01-05T12:27:02.375Z,9.15
2018-01-05T12:28:02.391Z,9.26
2018-01-05T12:29:02.403Z,9.23
2018-01-05T12:30:02.416Z,9.31
2018-01-05T12:31:02.432Z,9.23
2018-01-05T12:32:02.444Z,9.31
2018-01-05T12:33:02.461Z,9.42
2018-01-05T12:34:02.474Z,9.35
2018-01-05T12:35:02.488Z,9.40
2018-01-05T12:36:02.502Z,9.38
2018-01-05T12:37:02.522Z,9.42
2018-01-05T12:38:02.534Z,9.42
2018-01-05T12:39:02.547Z,9.40
2018-01-05T12:40:02.558Z,9.42
2018-01-05T12:41:02.568Z,9.39
2018-01-05T12:42:02.583Z,9.38
2018-01-05T12:43:02.601Z,9.40
2018-01-05T12:44:02.614Z,9.40
2018-01-05T12:45:02.634Z,9.36
2018-01-05T12:46:02.643Z,9.35
2018-01-05T12:47:02.657Z,9.38
2018-01-05T12:48:02.671Z,9.36
2018-01-05T12:49:02.686Z,9.36
2018-01-05T12:50:02.702Z,9.43
2018-01-05T12:51:02.715Z,9.42
2018-01-05T12:52:02.729Z,9.42
2018-01-05T12:53:02.747Z,9.42
2018-01-05T12:54:02.761Z,9.53
2018-01-05T12:55:02.775Z,9.54
2018-01-05T12:56:02.789Z,9.50
2018-01-05T12:57:02.805Z,9.51
2018-01-05T12:58:02.819Z,9.48
2018-01-05T12:59:02.834Z,9.51
2018-01-05T13:00:02.852Z,9.48
2018-01-05T13:01:02.863Z,9.53
2018-01-05T13:02:02.877Z,9.53
2018-01-05T13:03:02.908Z,9.53
2018-01-05T13:04:02.909Z,9.61
2018-01-05T13:05:02.932Z,9.51
2018-01-05T13:06:02.938Z,9.51
2018-01-05T13:07:02.952Z,9.53
2018-01-05T13:08:02.969Z,9.46
2018-01-05T13:09:02.979Z,9.53
2018-01-05T13:10:02.993Z,9.47
2018-01-05T13:11:03.010Z,9.53
2018-01-05T13:12:03.024Z,9.51
2018-01-05T13:13:03.037Z,9.51
2018-01-05T13:14:03.052Z,9.50
2018-01-05T13:15:03.068Z,9.51
2018-01-05T13:16:03.081Z,9.56
2018-01-05T13:17:03.098Z,9.54
2018-01-05T13:18:03.111Z,9.51
2018-01-05T13:19:03.138Z,9.58